createdAt,value
2023-02-01T00:01:26.817Z,98711.63
2023-02-01T00:03:54.254Z,98710.47
2023-02-01T00:06:21.411Z,98715.03
2023-02-01T00:08:48.552Z,98712.63
2023-02-01T00:11:15.944Z,98711.47
2023-02-01T00:13:43.332Z,98705.22
2023-02-01T00:16:13.525Z,98711.19
2023-02-01T00:18:41.394Z,98711.94
2023-02-01T00:21:08.556Z,98702.28
2023-02-01T00:23:36.941Z,98704.78
2023-02-01T00:26:06.131Z,98706.72
2023-02-01T00:28:33.728Z,98697.19
2023-02-01T00:31:02.503Z,98696.19
2023-02-01T00:33:30.665Z,98702.88
2023-02-01T00:36:08.451Z,98696.13
2023-02-01T00:38:38.280Z,98714.22
2023-02-01T00:41:17.557Z,98704.66
2023-02-01T00:43:45.776Z,98712.66
2023-02-01T00:46:14.076Z,98708.41
2023-02-01T00:48:41.779Z,98699.31
2023-02-01T00:51:12.469Z,98698.91
2023-02-01T00:53:40.980Z,98696.00
2023-02-01T00:56:09.483Z,98695.00
2023-02-01T00:58:36.608Z,98695.50
2023-02-01T01:01:21.866Z,98697.69
2023-02-01T01:03:52.073Z,98695.69
2023-02-01T01:06:25.754Z,98696.91
2023-02-01T01:08:57.035Z,98680.75
2023-02-01T01:11:26.947Z,98678.25
2023-02-01T01:13:58.237Z,98677.69
2023-02-01T01:16:28.743Z,98672.59
2023-02-01T01:18:56.760Z,98682.84
2023-02-01T01:21:24.374Z,98660.78
2023-02-01T01:23:51.615Z,98658.50
2023-02-01T01:26:22.130Z,98658.84
2023-02-01T01:28:49.501Z,98657.03
2023-02-01T01:31:18.523Z,98656.50
2023-02-01T01:33:49.825Z,98658.66
2023-02-01T01:36:17.305Z,98639.16
2023-02-01T01:38:44.700Z,98633.81
2023-02-01T01:41:18.171Z,98641.75
2023-02-01T01:44:06.470Z,98639.72
2023-02-01T01:46:41.953Z,98634.72
2023-02-01T01:49:12.992Z,98628.75
2023-02-01T01:51:43.852Z,98633.19
2023-02-01T01:54:17.170Z,98644.59
2023-02-01T01:56:49.604Z,98634.69
2023-02-01T01:59:16.978Z,98642.59
2023-02-01T02:01:44.917Z,98640.62
2023-02-01T02:04:12.396Z,98642.19
2023-02-01T02:07:02.664Z,98649.34
2023-02-01T02:09:29.983Z,98633.31
2023-02-01T02:11:57.710Z,98632.03
2023-02-01T02:14:26.974Z,98642.19
2023-02-01T02:17:00.928Z,98639.75
2023-02-01T02:19:35.334Z,98636.44
2023-02-01T02:22:20.853Z,98631.28
2023-02-01T02:25:18.986Z,98634.38
2023-02-01T02:28:20.081Z,98631.72
2023-02-01T02:31:14.267Z,98631.78
2023-02-01T02:34:10.217Z,98617.03
2023-02-01T02:36:56.488Z,98619.22
2023-02-01T02:39:29.612Z,98630.44
2023-02-01T02:42:49.760Z,98618.53
2023-02-01T02:46:01.692Z,98621.72
2023-02-01T02:48:43.086Z,98619.63
2023-02-01T02:51:41.759Z,98621.63
2023-02-01T02:54:34.401Z,98611.91
2023-02-01T02:57:22.956Z,98623.69
2023-02-01T03:00:09.528Z,98617.53
2023-02-01T03:02:54.906Z,98624.13
2023-02-01T03:05:22.362Z,98626.53
2023-02-01T03:08:16.410Z,98621.87
2023-02-01T03:10:49.777Z,98621.44
2023-02-01T03:13:16.906Z,98627.38
2023-02-01T03:16:16.657Z,98624.34
2023-02-01T03:19:05.065Z,98607.50
2023-02-01T03:21:45.537Z,98611.69
2023-02-01T03:24:17.072Z,98616.78
2023-02-01T03:26:56.640Z,98612.53
2023-02-01T03:29:31.142Z,98613.34
2023-02-01T03:31:58.583Z,98616.88
2023-02-01T03:34:25.742Z,98612.75
2023-02-01T03:36:59.714Z,98622.50
2023-02-01T03:39:30.372Z,98624.09
2023-02-01T03:42:00.386Z,98620.59
2023-02-01T03:44:32.779Z,98622.16
2023-02-01T03:47:09.590Z,98619.31
2023-02-01T03:49:50.315Z,98621.06
2023-02-01T03:52:21.550Z,98628.31
2023-02-01T03:54:50.182Z,98621.63
2023-02-01T03:57:21.749Z,98617.59
2023-02-01T03:59:49.193Z,98613.31
2023-02-01T04:02:16.513Z,98626.50
2023-02-01T04:04:44.105Z,98619.75
2023-02-01T04:07:11.841Z,98625.78
2023-02-01T04:09:38.948Z,98613.94
2023-02-01T04:12:06.581Z,98617.84
2023-02-01T04:14:34.043Z,98618.75
2023-02-01T04:17:01.583Z,98622.94
2023-02-01T04:19:28.996Z,98621.34
2023-02-01T04:21:56.103Z,98622.13
2023-02-01T04:24:23.458Z,98620.34
2023-02-01T04:26:50.925Z,98618.75
2023-02-01T04:29:18.158Z,98616.09
2023-02-01T04:31:45.314Z,98621.69
2023-02-01T04:34:12.819Z,98625.12
2023-02-01T04:36:39.901Z,98613.03
2023-02-01T04:39:07.266Z,98618.12
2023-02-01T04:41:34.658Z,98614.37
2023-02-01T04:44:01.740Z,98617.78
2023-02-01T04:46:29.189Z,98634.34
2023-02-01T04:48:56.569Z,98635.69
2023-02-01T04:51:23.959Z,98626.94
2023-02-01T04:53:51.058Z,98626.94
2023-02-01T04:56:18.462Z,98621.44
2023-02-01T04:58:45.551Z,98634.00
2023-02-01T05:01:12.701Z,98640.25
2023-02-01T05:03:40.255Z,98638.09
2023-02-01T05:06:07.396Z,98637.47
2023-02-01T05:08:36.645Z,98635.72
2023-02-01T05:11:05.461Z,98632.38
2023-02-01T05:13:50.756Z,98624.38
2023-02-01T05:16:18.396Z,98615.22
2023-02-01T05:18:45.698Z,98628.31
2023-02-01T05:21:13.731Z,98623.97
2023-02-01T05:23:59.723Z,98628.91
2023-02-01T05:26:26.887Z,98613.31
2023-02-01T05:28:54.264Z,98617.66
2023-02-01T05:31:22.063Z,98621.06
2023-02-01T05:33:49.249Z,98625.25
2023-02-01T05:36:16.764Z,98635.22
2023-02-01T05:38:44.000Z,98633.72
2023-02-01T05:41:11.123Z,98634.56
2023-02-01T05:43:38.878Z,98635.22
2023-02-01T05:46:05.989Z,98631.41
2023-02-01T05:48:33.119Z,98644.44
2023-02-01T05:51:00.484Z,98642.75
2023-02-01T05:53:27.574Z,98646.22
2023-02-01T05:55:54.659Z,98656.16
2023-02-01T05:58:22.052Z,98658.31
2023-02-01T06:00:49.202Z,98648.34
2023-02-01T06:03:16.575Z,98652.09
2023-02-01T06:05:47.844Z,98648.12
2023-02-01T06:08:15.390Z,98657.50
2023-02-01T06:10:42.803Z,98661.75
2023-02-01T06:13:10.077Z,98660.84
2023-02-01T06:15:38.483Z,98664.50
2023-02-01T06:18:05.940Z,98667.25
2023-02-01T06:20:32.998Z,98665.84
2023-02-01T06:23:00.120Z,98677.50
2023-02-01T06:25:27.519Z,98675.78
2023-02-01T06:27:54.624Z,98670.84
2023-02-01T06:30:22.360Z,98680.84
2023-02-01T06:32:54.657Z,98675.59
2023-02-01T06:35:21.813Z,98673.59
2023-02-01T06:37:48.914Z,98667.00
2023-02-01T06:40:16.348Z,98668.84
2023-02-01T06:42:43.463Z,98671.84
2023-02-01T06:45:10.866Z,98671.66
2023-02-01T06:47:38.404Z,98677.22
2023-02-01T06:50:06.383Z,98671.62
2023-02-01T06:52:33.947Z,98676.16
2023-02-01T06:55:01.537Z,98696.66
2023-02-01T06:57:31.488Z,98686.03
2023-02-01T06:59:59.526Z,98688.63
2023-02-01T07:02:26.976Z,98700.56
2023-02-01T07:04:54.098Z,98690.25
2023-02-01T07:07:23.453Z,98693.25
2023-02-01T07:09:51.176Z,98707.91
2023-02-01T07:12:19.445Z,98708.50
2023-02-01T07:14:46.502Z,98708.06
2023-02-01T07:17:14.230Z,98708.34
2023-02-01T07:19:41.385Z,98712.13
2023-02-01T07:22:08.463Z,98731.00
2023-02-01T07:24:35.828Z,98735.00
2023-02-01T07:27:02.949Z,98738.22
2023-02-01T07:29:30.054Z,98734.28
2023-02-01T07:31:57.629Z,98737.16
2023-02-01T07:34:25.229Z,98739.22
2023-02-01T07:36:52.359Z,98742.34
2023-02-01T07:39:19.721Z,98741.59
2023-02-01T07:41:47.296Z,98752.53
2023-02-01T07:44:14.427Z,98754.75
2023-02-01T07:46:41.891Z,98752.53
2023-02-01T07:49:08.973Z,98750.31
2023-02-01T07:51:36.069Z,98761.03
2023-02-01T07:54:03.395Z,98738.72
2023-02-01T07:56:30.437Z,98752.97
2023-02-01T07:58:57.925Z,98744.63
2023-02-01T08:01:26.831Z,98742.84
2023-02-01T08:04:02.937Z,98748.41
2023-02-01T08:06:33.362Z,98752.63
2023-02-01T08:09:03.534Z,98742.53
2023-02-01T08:11:30.829Z,98751.69
2023-02-01T08:13:59.009Z,98753.13
2023-02-01T08:16:26.556Z,98753.13
2023-02-01T08:18:55.139Z,98760.97
2023-02-01T08:21:24.812Z,98769.66
2023-02-01T08:23:52.473Z,98769.16
2023-02-01T08:26:24.922Z,98787.09
2023-02-01T08:28:55.674Z,98782.78
2023-02-01T08:31:24.906Z,98780.00
2023-02-01T08:33:55.109Z,98786.81
2023-02-01T08:36:22.741Z,98782.78
2023-02-01T08:38:49.731Z,98781.63
2023-02-01T08:41:19.801Z,98780.34
2023-02-01T08:43:48.860Z,98782.03
2023-02-01T08:46:17.504Z,98785.12
2023-02-01T08:48:44.575Z,98779.53
2023-02-01T08:51:13.282Z,98773.06
2023-02-01T08:53:42.608Z,98771.91
2023-02-01T08:56:11.529Z,98773.25
2023-02-01T08:58:38.913Z,98772.00
2023-02-01T09:01:11.803Z,98763.91
2023-02-01T09:03:39.164Z,98752.06
2023-02-01T09:06:08.926Z,98749.59
2023-02-01T09:08:36.556Z,98758.75
2023-02-01T09:11:08.071Z,98746.06
2023-02-01T09:13:36.391Z,98745.41
2023-02-01T09:16:04.706Z,98752.50
2023-02-01T09:18:32.152Z,98756.44
2023-02-01T09:20:59.579Z,98753.09
2023-02-01T09:23:26.654Z,98747.50
2023-02-01T09:25:53.763Z,98740.88
2023-02-01T09:28:21.150Z,98749.25
2023-02-01T09:30:48.387Z,98759.84
2023-02-01T09:33:15.694Z,98764.53
2023-02-01T09:35:43.095Z,98777.59
2023-02-01T09:38:10.113Z,98774.47
2023-02-01T09:40:37.187Z,98779.19
2023-02-01T09:43:52.445Z,98779.72
2023-02-01T09:46:29.248Z,98788.34
2023-02-01T09:48:59.560Z,98788.66
2023-02-01T09:51:31.086Z,98785.03
2023-02-01T09:53:58.365Z,98782.63
2023-02-01T09:56:30.264Z,98779.28
2023-02-01T09:59:09.598Z,98773.37
2023-02-01T10:01:38.260Z,98771.72
2023-02-01T10:04:09.467Z,98768.91
2023-02-01T10:07:02.950Z,98764.91
2023-02-01T10:09:34.029Z,98762.88
2023-02-01T10:12:32.167Z,98763.75
2023-02-01T10:15:31.911Z,98752.94
2023-02-01T10:18:16.057Z,98738.78
2023-02-01T10:20:54.340Z,98721.63
2023-02-01T10:23:40.511Z,98714.66
2023-02-01T10:26:24.551Z,98724.19
2023-02-01T10:28:54.153Z,98718.66
2023-02-01T10:31:26.239Z,98722.31
2023-02-01T10:34:01.106Z,98719.91
2023-02-01T10:36:53.771Z,98711.09
2023-02-01T10:39:21.425Z,98708.72
2023-02-01T10:41:49.149Z,98700.69
2023-02-01T10:44:19.328Z,98695.56
2023-02-01T10:46:46.600Z,98701.34
2023-02-01T10:49:20.538Z,98707.69
2023-02-01T10:51:55.877Z,98709.91
2023-02-01T10:54:34.761Z,98696.69
2023-02-01T10:57:02.005Z,98697.63
2023-02-01T10:59:34.386Z,98695.94
2023-02-01T11:02:19.614Z,98694.78
2023-02-01T11:04:47.170Z,98684.56
2023-02-01T11:07:20.633Z,98682.31
2023-02-01T11:09:56.201Z,98674.00
2023-02-01T11:12:33.572Z,98664.12
2023-02-01T11:15:03.424Z,98671.91
2023-02-01T11:17:37.168Z,98664.44
2023-02-01T11:20:10.357Z,98665.78
2023-02-01T11:22:37.407Z,98660.47
2023-02-01T11:25:10.668Z,98649.44
2023-02-01T11:27:49.493Z,98652.19
2023-02-01T11:30:33.971Z,98637.09
2023-02-01T11:33:01.803Z,98628.84
2023-02-01T11:35:30.083Z,98630.84
2023-02-01T11:38:02.486Z,98627.38
2023-02-01T11:40:36.341Z,98613.25
2023-02-01T11:43:16.610Z,98618.53
2023-02-01T11:45:57.021Z,98612.66
2023-02-01T11:48:27.300Z,98611.72
2023-02-01T11:50:57.481Z,98601.94
2023-02-01T11:53:42.915Z,98598.87
2023-02-01T11:56:20.012Z,98603.34
2023-02-01T11:59:19.259Z,98608.69
2023-02-01T12:01:52.628Z,98604.41
2023-02-01T12:04:32.341Z,98595.41
2023-02-01T12:07:11.797Z,98592.63
2023-02-01T12:09:43.425Z,98600.06
2023-02-01T12:12:25.668Z,98603.69
2023-02-01T12:15:14.754Z,98608.50
2023-02-01T12:18:09.731Z,98608.66
2023-02-01T12:21:07.940Z,98620.41
2023-02-01T12:23:37.786Z,98610.88
2023-02-01T12:26:26.874Z,98626.81
2023-02-01T12:29:26.072Z,98615.53
2023-02-01T12:32:08.148Z,98620.19
2023-02-01T12:34:43.922Z,98626.28
2023-02-01T12:37:33.130Z,98624.38
2023-02-01T12:40:07.228Z,98617.66
2023-02-01T12:43:07.130Z,98617.75
2023-02-01T12:45:40.907Z,98611.81
2023-02-01T12:48:20.427Z,98608.22
2023-02-01T12:50:54.442Z,98594.19
2023-02-01T12:53:32.073Z,98601.91
2023-02-01T12:56:12.314Z,98582.94
2023-02-01T12:58:42.563Z,98567.28
2023-02-01T13:01:22.146Z,98572.06
2023-02-01T13:03:55.537Z,98571.78
2023-02-01T13:06:27.650Z,98577.41
2023-02-01T13:09:04.595Z,98567.16
2023-02-01T13:11:39.699Z,98566.75
2023-02-01T13:14:28.767Z,98563.81
2023-02-01T13:17:26.385Z,98550.63
2023-02-01T13:20:00.107Z,98554.78
2023-02-01T13:22:34.323Z,98555.19
2023-02-01T13:25:05.132Z,98555.31
2023-02-01T13:27:33.119Z,98553.31
2023-02-01T13:30:09.619Z,98543.97
2023-02-01T13:33:50.546Z,98546.06
2023-02-01T13:35:41.165Z,98544.59
2023-02-01T13:38:39.353Z,98551.84
2023-02-01T13:41:06.508Z,98538.28
2023-02-01T13:43:34.184Z,98540.81
2023-02-01T13:46:06.916Z,98537.78
2023-02-01T13:48:39.484Z,98541.88
2023-02-01T13:51:07.001Z,98547.47
2023-02-01T13:53:38.613Z,98545.59
2023-02-01T13:56:14.249Z,98547.78
2023-02-01T13:58:43.861Z,98546.88
2023-02-01T14:01:23.338Z,98543.56
2023-02-01T14:03:56.010Z,98557.53
2023-02-01T14:06:29.126Z,98561.03
2023-02-01T14:09:33.468Z,98566.13
2023-02-01T14:12:38.826Z,98581.06
2023-02-01T14:15:28.029Z,98563.91
2023-02-01T14:17:56.001Z,98562.06
2023-02-01T14:20:46.403Z,98560.50
2023-02-01T14:23:19.531Z,98563.13
2023-02-01T14:26:04.522Z,98563.62
2023-02-01T14:28:31.878Z,98571.19
2023-02-01T14:31:00.568Z,98571.31
2023-02-01T14:33:29.147Z,98577.56
2023-02-01T14:36:06.148Z,98571.84
2023-02-01T14:38:35.617Z,98579.62
2023-02-01T14:41:32.097Z,98575.91
2023-02-01T14:44:02.626Z,98582.97
2023-02-01T14:47:07.534Z,98568.94
2023-02-01T14:49:51.174Z,98568.63
2023-02-01T14:52:20.494Z,98569.88
2023-02-01T14:54:52.827Z,98581.28
2023-02-01T14:57:21.857Z,98570.19
2023-02-01T14:59:50.533Z,98582.53
2023-02-01T15:02:26.409Z,98584.78
2023-02-01T15:04:56.787Z,98582.19
2023-02-01T15:07:28.243Z,98581.28
2023-02-01T15:09:58.038Z,98584.06
2023-02-01T15:12:28.688Z,98577.00
2023-02-01T15:15:22.209Z,98570.34
2023-02-01T15:18:01.083Z,98580.94
2023-02-01T15:20:34.052Z,98571.94
2023-02-01T15:23:02.105Z,98563.72
2023-02-01T15:25:32.057Z,98557.50
2023-02-01T15:27:59.411Z,98573.06
2023-02-01T15:30:28.937Z,98565.78
2023-02-01T15:33:29.441Z,98568.78
2023-02-01T15:36:08.986Z,98578.94
2023-02-01T15:38:41.834Z,98588.81
2023-02-01T15:41:19.889Z,98594.91
2023-02-01T15:43:56.274Z,98598.53
2023-02-01T15:46:31.240Z,98599.66
2023-02-01T15:48:58.913Z,98605.56
2023-02-01T15:51:28.973Z,98614.56
2023-02-01T15:53:59.926Z,98614.87
2023-02-01T15:56:35.346Z,98618.09
2023-02-01T15:59:04.597Z,98622.53
2023-02-01T16:01:38.265Z,98625.88
2023-02-01T16:04:13.611Z,98622.44
2023-02-01T16:06:56.237Z,98626.69
2023-02-01T16:09:26.118Z,98629.94
2023-02-01T16:12:01.062Z,98627.34
2023-02-01T16:14:28.710Z,98631.78
2023-02-01T16:16:57.917Z,98629.09
2023-02-01T16:19:28.914Z,98624.84
2023-02-01T16:21:57.148Z,98630.97
2023-02-01T16:24:26.834Z,98627.59
2023-02-01T16:26:54.045Z,98630.41
2023-02-01T16:29:22.634Z,98642.56
2023-02-01T16:31:50.007Z,98634.06
2023-02-01T16:34:20.648Z,98628.69
2023-02-01T16:36:52.821Z,98635.50
2023-02-01T16:39:23.052Z,98638.09
2023-02-01T16:41:51.318Z,98642.56
2023-02-01T16:44:19.431Z,98637.37
2023-02-01T16:46:48.125Z,98626.12
2023-02-01T16:49:25.759Z,98634.75
2023-02-01T16:51:57.843Z,98629.66
2023-02-01T16:54:25.252Z,98629.84
2023-02-01T16:56:53.105Z,98621.37
2023-02-01T16:59:20.199Z,98629.34
2023-02-01T17:01:47.553Z,98631.34
2023-02-01T17:04:14.715Z,98634.47
2023-02-01T17:06:42.657Z,98627.25
2023-02-01T17:09:10.594Z,98622.34
2023-02-01T17:11:38.739Z,98623.91
2023-02-01T17:14:18.236Z,98615.63
2023-02-01T17:16:47.165Z,98616.28
2023-02-01T17:19:18.127Z,98620.09
2023-02-01T17:21:49.774Z,98623.78
2023-02-01T17:24:18.873Z,98623.34
2023-02-01T17:26:46.968Z,98616.06
2023-02-01T17:29:14.241Z,98613.84
2023-02-01T17:31:45.015Z,98616.97
2023-02-01T17:34:15.581Z,98620.13
2023-02-01T17:36:43.600Z,98614.78
2023-02-01T17:39:11.164Z,98619.16
2023-02-01T17:41:38.573Z,98614.97
2023-02-01T17:44:05.822Z,98619.22
2023-02-01T17:46:33.206Z,98615.34
2023-02-01T17:49:01.480Z,98621.81
2023-02-01T17:51:29.388Z,98625.59
2023-02-01T17:53:56.597Z,98633.56
2023-02-01T17:56:25.686Z,98636.22
2023-02-01T17:58:52.801Z,98629.19
2023-02-01T18:01:22.096Z,98638.72
2023-02-01T18:03:49.798Z,98635.19
2023-02-01T18:06:19.502Z,98633.91
2023-02-01T18:08:46.835Z,98641.84
2023-02-01T18:11:17.702Z,98638.41
2023-02-01T18:13:44.747Z,98647.94
2023-02-01T18:16:22.199Z,98642.69
2023-02-01T18:18:49.941Z,98646.75
2023-02-01T18:21:18.748Z,98639.72
2023-02-01T18:23:46.066Z,98633.47
2023-02-01T18:26:15.514Z,98631.50
2023-02-01T18:28:43.011Z,98634.19
2023-02-01T18:31:31.610Z,98631.78
2023-02-01T18:34:00.226Z,98626.97
2023-02-01T18:36:28.653Z,98639.72
2023-02-01T18:38:57.623Z,98639.53
2023-02-01T18:41:25.499Z,98648.41
2023-02-01T18:43:52.921Z,98636.87
2023-02-01T18:46:21.949Z,98636.59
2023-02-01T18:48:50.379Z,98634.81
2023-02-01T18:51:20.216Z,98636.59
2023-02-01T18:53:48.354Z,98636.31
2023-02-01T18:56:20.145Z,98625.31
2023-02-01T18:58:47.268Z,98626.81
2023-02-01T19:01:17.097Z,98631.22
2023-02-01T19:03:48.150Z,98626.97
2023-02-01T19:06:18.634Z,98622.56
2023-02-01T19:08:46.889Z,98628.66
2023-02-01T19:11:14.402Z,98616.72
2023-02-01T19:13:41.582Z,98620.59
2023-02-01T19:16:10.632Z,98610.34
2023-02-01T19:18:38.274Z,98608.69
2023-02-01T19:21:08.034Z,98597.78
2023-02-01T19:23:35.824Z,98597.06
2023-02-01T19:26:03.058Z,98590.37
2023-02-01T19:28:30.187Z,98593.81
2023-02-01T19:31:05.399Z,98581.91
2023-02-01T19:33:32.972Z,98587.25
2023-02-01T19:36:05.246Z,98582.97
2023-02-01T19:38:33.618Z,98588.72
2023-02-01T19:41:01.315Z,98588.34
2023-02-01T19:43:28.693Z,98591.13
2023-02-01T19:45:57.403Z,98590.94
2023-02-01T19:48:24.887Z,98585.84
2023-02-01T19:50:55.565Z,98586.31
2023-02-01T19:53:25.825Z,98593.53
2023-02-01T19:55:57.745Z,98591.75
2023-02-01T19:58:25.783Z,98599.34
2023-02-01T20:00:56.606Z,98590.47
2023-02-01T20:03:24.499Z,98589.66
2023-02-01T20:05:53.043Z,98595.44
2023-02-01T20:08:20.849Z,98603.22
2023-02-01T20:10:48.244Z,98603.94
2023-02-01T20:13:15.525Z,98601.19
2023-02-01T20:15:42.853Z,98605.19
2023-02-01T20:18:10.683Z,98595.84
2023-02-01T20:20:38.337Z,98589.75
2023-02-01T20:23:06.421Z,98589.94
2023-02-01T20:25:36.560Z,98591.03
2023-02-01T20:28:03.767Z,98595.38
2023-02-01T20:30:32.315Z,98598.06
2023-02-01T20:32:59.768Z,98612.94
2023-02-01T20:35:27.100Z,98609.78
2023-02-01T20:37:54.392Z,98621.63
2023-02-01T20:40:21.812Z,98624.03
2023-02-01T20:42:48.978Z,98625.31
2023-02-01T20:45:16.267Z,98619.94
2023-02-01T20:47:43.678Z,98625.94
2023-02-01T20:50:11.676Z,98621.97
2023-02-01T20:52:38.752Z,98619.38
2023-02-01T20:55:06.942Z,98619.41
2023-02-01T20:57:34.066Z,98638.44
2023-02-01T21:00:01.180Z,98625.59
2023-02-01T21:02:28.656Z,98643.25
2023-02-01T21:04:55.746Z,98640.47
2023-02-01T21:07:22.855Z,98631.22
2023-02-01T21:09:50.347Z,98625.22
2023-02-01T21:12:17.343Z,98625.69
2023-02-01T21:14:44.388Z,98624.84
2023-02-01T21:17:11.743Z,98619.47
2023-02-01T21:19:44.578Z,98613.69
2023-02-01T21:22:13.308Z,98606.66
2023-02-01T21:24:43.307Z,98607.88
2023-02-01T21:27:10.612Z,98606.66
2023-02-01T21:29:38.258Z,98606.66
2023-02-01T21:32:06.954Z,98604.06
2023-02-01T21:34:34.851Z,98608.78
2023-02-01T21:37:02.440Z,98609.06
2023-02-01T21:39:29.555Z,98616.81
2023-02-01T21:42:14.902Z,98622.00
2023-02-01T21:44:42.766Z,98622.72
2023-02-01T21:47:13.559Z,98613.13
2023-02-01T21:49:40.566Z,98629.37
2023-02-01T21:52:08.424Z,98619.03
2023-02-01T21:54:35.668Z,98616.34
2023-02-01T21:57:02.892Z,98619.75
2023-02-01T21:59:30.227Z,98605.91
2023-02-01T22:01:57.283Z,98605.00
2023-02-01T22:04:24.654Z,98599.63
2023-02-01T22:06:51.750Z,98582.63
2023-02-01T22:09:21.138Z,98590.75
2023-02-01T22:11:48.844Z,98571.53
2023-02-01T22:14:16.162Z,98573.00
2023-02-01T22:16:43.273Z,98571.34
2023-02-01T22:19:12.488Z,98568.31
2023-02-01T22:21:42.107Z,98562.03
2023-02-01T22:24:10.810Z,98556.09
2023-02-01T22:26:38.662Z,98561.28
2023-02-01T22:29:06.424Z,98554.53
2023-02-01T22:31:33.496Z,98556.75
2023-02-01T22:34:01.087Z,98554.91
2023-02-01T22:36:28.093Z,98546.75
2023-02-01T22:38:55.090Z,98554.53
2023-02-01T22:41:22.380Z,98562.28
2023-02-01T22:43:49.384Z,98541.97
2023-02-01T22:46:25.329Z,98541.06
2023-02-01T22:48:52.944Z,98546.22
2023-02-01T22:51:22.855Z,98542.63
2023-02-01T22:53:57.068Z,98546.13
2023-02-01T22:56:25.603Z,98537.75
2023-02-01T22:59:03.530Z,98533.66
2023-02-01T23:01:31.477Z,98531.09
2023-02-01T23:04:04.083Z,98517.41
2023-02-01T23:06:32.301Z,98530.06
2023-02-01T23:09:01.795Z,98538.13
2023-02-01T23:11:29.165Z,98531.09
2023-02-01T23:13:56.699Z,98529.41
2023-02-01T23:16:23.922Z,98538.75
2023-02-01T23:18:51.072Z,98538.56
2023-02-01T23:21:20.825Z,98545.50
2023-02-01T23:23:53.136Z,98555.09
2023-02-01T23:26:21.616Z,98541.16
2023-02-01T23:28:50.736Z,98531.84
2023-02-01T23:31:17.963Z,98523.47
2023-02-01T23:33:45.880Z,98504.97
2023-02-01T23:36:15.992Z,98501.06
2023-02-01T23:38:46.475Z,98491.25
2023-02-01T23:41:15.805Z,98493.31
2023-02-01T23:43:58.438Z,98496.53
2023-02-01T23:46:41.242Z,98480.88
2023-02-01T23:49:09.052Z,98471.63
2023-02-01T23:51:37.004Z,98484.47
2023-02-01T23:54:04.278Z,98488.81
2023-02-01T23:56:36.579Z,98479.38
2023-02-01T23:59:06.364Z,98467.16
